Cranberry Gap, North Carolina
Current Conditions -  °F | °C
As of 9:15 PM on Friday 19 Dec 2014 (Local Time) from KTNB Reporting Station
Clear Clear  
Wind Chill: 35°   Ceiling: Unl
Heat Index: 35°   Visibility: 10mi
Dew Point: 22°   Wind: 0mph
Humidity: 58%   Direction: NA
Pressure: 30.14"   Gusts: NA
Location:  36.0227°N, 81.9499°W
Report Text: KTNB 200215Z AUTO 00000KT 10SM CLR 02/M06 A3014 RMK AO2 T00181056
Loading
Personal Weather Stations






























Interactive Weather Map New forecast layout! Learn more

10-Day Weather Forecast

Advertisements
Track Severe Weather on mobile